Terminal Aerodrome Forecast
Issued by NWS

Home | Current Version | Previous Version | Graphics & Text | Print | Product List | Glossary On
Versions: 1 2 3 4 5 6 7 8 9 10 11 12 13 14 15
000
FTUS43 KMPX 262335
TAFRWF
TAF
KRWF 262335Z 2700/2724 33012KT P6SM VCSH SCT008 OVC012
     FM271600 31012G18KT P6SM BKN020
     FM271900 32012G18KT P6SM SCT035=

USA.gov is the U.S. government's official web portal to all federal, state and local government web resources and services.